Colaboz, Texas
Current Conditions -  °F | °C
As of 5:52 PM on Saturday 25 Oct 2014 (Local Time) from KHRL Reporting Station
Clear Clear  
Wind Chill: 80°   Ceiling: Unl
Heat Index: 82°   Visibility: 10mi
Dew Point: 66°   Wind: 9mph
Humidity: 62%   Direction: 90°E
Pressure: 30.07"   Gusts: NA
Location:  26.1784°N, 97.6678°W
Report Text: KHRL 252252Z 09008KT 10SM CLR 27/19 A3007 RMK AO2 SLP183 T02670189
Loading
Personal Weather Stations






























Interactive Weather Map
Tropical Storm Tracking
New forecast layout! Learn more

10-Day Weather Forecast

Advertisements
Track Severe Weather on mobile